Terminal Aerodrome Forecast
Issued by NWS

Home | Current Version | Previous Version | Text Only | Print | Product List | Glossary On
Versions: 1 2 3 4 5 6 7 8 9 10 11 12 13 14 15 16
000
FTUS41 KBTV 211738
TAFPBG
TAF
KPBG 211738Z 2118/2218 17015G24KT P6SM SCT200
     FM212200 18011KT P6SM SCT150
     FM220600 17008KT P6SM VCSH OVC090
     FM221200 21004KT P6SM VCSH OVC030
     FM221500 31005KT P6SM VCSH BKN035
     FM221600 31006KT P6SM BKN040=

USA.gov is the U.S. government's official web portal to all federal, state and local government web resources and services.